Terminal Aerodrome Forecast
Issued by NWS

Home | Current Version | Previous Version | Text Only | Print | Product List | Glossary On
Versions: 1 2 3 4 5 6 7 8 9 10 11 12 13
757
FTUS42 KGSP 241728
TAFGMU
TAF
KGMU 241728Z 2418/2518 06007KT P6SM BKN040
     FM250000 05006KT P6SM FEW050 FEW250
     FM251500 03010KT P6SM SCT200=

USA.gov is the U.S. government's official web portal to all federal, state and local government web resources and services.